<?xml version="1.0" encoding="utf-8"?>
<gpx xmlns:xsi="http://www.w3.org/2001/XMLSchema-instance" xmlns:xsd="http://www.w3.org/2001/XMLSchema" version="1.1" creator="Shapelink.com" xmlns="http://www.topografix.com/GPX/1/1" xmlns:gpxtpx="http://www.garmin.com/xmlschemas/TrackPointExtension/v1">
  <metadata>
    <name>Övrigt 2.11 km, 2020-07-19</name>
    <desc></desc>
    <author><name>Marian Moron</name></author> 
    <time>2020-07-19T19:33:30Z</time>
  </metadata>
  <trk>
    <name>Övrigt 2.11 km, 2020-07-19</name>
    <trkseg>
      <trkpt lat="51.22957433234" lon="4.458024910451">
        <ele>8</ele>
        <time>2020-07-19T19:33:30Z</time>
      </trkpt>
      <trkpt lat="51.22946117669" lon="4.457966823884">
        <ele>11.6</ele>
        <time>2020-07-19T19:33:41Z</time>
      </trkpt>
      <trkpt lat="51.229289096283" lon="4.457992975412">
        <ele>15</ele>
        <time>2020-07-19T19:34:35Z</time>
      </trkpt>
      <trkpt lat="51.228842257194" lon="4.458119961197">
        <ele>14.8</ele>
        <time>2020-07-19T19:35:14Z</time>
      </trkpt>
      <trkpt lat="51.228476471078" lon="4.458058438051">
        <ele>10.4</ele>
        <time>2020-07-19T19:35:52Z</time>
      </trkpt>
      <trkpt lat="51.228522822985" lon="4.45775844985">
        <ele>9.4</ele>
        <time>2020-07-19T19:36:27Z</time>
      </trkpt>
      <trkpt lat="51.228492564326" lon="4.457592572049">
        <ele>9.2</ele>
        <time>2020-07-19T19:36:44Z</time>
      </trkpt>
      <trkpt lat="51.228255775651" lon="4.457350754234">
        <ele>8.8</ele>
        <time>2020-07-19T19:37:16Z</time>
      </trkpt>
      <trkpt lat="51.22807397224" lon="4.457456785269">
        <ele>9</ele>
        <time>2020-07-19T19:37:35Z</time>
      </trkpt>
      <trkpt lat="51.227961068047" lon="4.457461646771">
        <ele>9</ele>
        <time>2020-07-19T19:37:46Z</time>
      </trkpt>
      <trkpt lat="51.227793010952" lon="4.457528618152">
        <ele>7.8</ele>
        <time>2020-07-19T19:38:05Z</time>
      </trkpt>
      <trkpt lat="51.227525879799" lon="4.457703464586">
        <ele>6.4</ele>
        <time>2020-07-19T19:38:33Z</time>
      </trkpt>
      <trkpt lat="51.227181802804" lon="4.45792441147">
        <ele>3.2</ele>
        <time>2020-07-19T19:39:16Z</time>
      </trkpt>
      <trkpt lat="51.227111562482" lon="4.457866241084">
        <ele>1.4</ele>
        <time>2020-07-19T19:40:20Z</time>
      </trkpt>
      <trkpt lat="51.226984744335" lon="4.457907480032">
        <ele>2.8</ele>
        <time>2020-07-19T19:40:37Z</time>
      </trkpt>
      <trkpt lat="51.226818279801" lon="4.457867833645">
        <ele>0</ele>
        <time>2020-07-19T19:41:13Z</time>
      </trkpt>
      <trkpt lat="51.226752314248" lon="4.457909156412">
        <ele>0</ele>
        <time>2020-07-19T19:41:21Z</time>
      </trkpt>
      <trkpt lat="51.226338583664" lon="4.458262453497">
        <ele>1.2</ele>
        <time>2020-07-19T19:42:01Z</time>
      </trkpt>
      <trkpt lat="51.226193576794" lon="4.458350966361">
        <ele>1.8</ele>
        <time>2020-07-19T19:42:16Z</time>
      </trkpt>
      <trkpt lat="51.225901635217" lon="4.458549365934">
        <ele>3.4</ele>
        <time>2020-07-19T19:42:45Z</time>
      </trkpt>
      <trkpt lat="51.225683957274" lon="4.458387008531">
        <ele>4</ele>
        <time>2020-07-19T19:43:14Z</time>
      </trkpt>
      <trkpt lat="51.225458148888" lon="4.458099844637">
        <ele>2.6</ele>
        <time>2020-07-19T19:44:02Z</time>
      </trkpt>
      <trkpt lat="51.225359577744" lon="4.457870851129">
        <ele>0</ele>
        <time>2020-07-19T19:44:40Z</time>
      </trkpt>
      <trkpt lat="51.224933609586" lon="4.457576814077">
        <ele>17.6</ele>
        <time>2020-07-19T19:45:18Z</time>
      </trkpt>
      <trkpt lat="51.22458458727" lon="4.457218404033">
        <ele>20.8</ele>
        <time>2020-07-19T19:46:06Z</time>
      </trkpt>
      <trkpt lat="51.224537480992" lon="4.457186301356">
        <ele>21</ele>
        <time>2020-07-19T19:46:13Z</time>
      </trkpt>
      <trkpt lat="51.224583078528" lon="4.456466296146">
        <ele>13</ele>
        <time>2020-07-19T19:46:44Z</time>
      </trkpt>
      <trkpt lat="51.224655498144" lon="4.456149711783">
        <ele>11.2</ele>
        <time>2020-07-19T19:47:04Z</time>
      </trkpt>
      <trkpt lat="51.224840486677" lon="4.455563565516">
        <ele>11.2</ele>
        <time>2020-07-19T19:48:00Z</time>
      </trkpt>
      <trkpt lat="51.224900081986" lon="4.455569600484">
        <ele>7.8</ele>
        <time>2020-07-19T19:48:03Z</time>
      </trkpt>
      <trkpt lat="51.225057829344" lon="4.455645959593">
        <ele>0.8</ele>
        <time>2020-07-19T19:48:17Z</time>
      </trkpt>
      <trkpt lat="51.225118681938" lon="4.455679990107">
        <ele>1.8</ele>
        <time>2020-07-19T19:48:24Z</time>
      </trkpt>
      <trkpt lat="51.225492766135" lon="4.456013086813">
        <ele>0</ele>
        <time>2020-07-19T19:49:02Z</time>
      </trkpt>
      <trkpt lat="51.225672390252" lon="4.456681040424">
        <ele>0.8</ele>
        <time>2020-07-19T19:49:40Z</time>
      </trkpt>
      <trkpt lat="51.225946478382" lon="4.45724380119">
        <ele>0</ele>
        <time>2020-07-19T19:50:24Z</time>
      </trkpt>
      <trkpt lat="51.225957374852" lon="4.457240532249">
        <ele>0</ele>
        <time>2020-07-19T19:50:25Z</time>
      </trkpt>
      <trkpt lat="51.226159630099" lon="4.457088652221">
        <ele>5.2</ele>
        <time>2020-07-19T19:50:56Z</time>
      </trkpt>
      <trkpt lat="51.226209502404" lon="4.457054202612">
        <ele>5.2</ele>
        <time>2020-07-19T19:51:00Z</time>
      </trkpt>
      <trkpt lat="51.226423911406" lon="4.456944818817">
        <ele>2.8</ele>
        <time>2020-07-19T19:51:20Z</time>
      </trkpt>
      <trkpt lat="51.226598841659" lon="4.456873907943">
        <ele>1.4</ele>
        <time>2020-07-19T19:51:34Z</time>
      </trkpt>
      <trkpt lat="51.226646450851" lon="4.456845996216">
        <ele>0</ele>
        <time>2020-07-19T19:51:45Z</time>
      </trkpt>
      <trkpt lat="51.226714092784" lon="4.456724877761">
        <ele>0</ele>
        <time>2020-07-19T19:51:53Z</time>
      </trkpt>
      <trkpt lat="51.226833367221" lon="4.456665030995">
        <ele>3.6</ele>
        <time>2020-07-19T19:52:46Z</time>
      </trkpt>
      <trkpt lat="51.226853819057" lon="4.456643489512">
        <ele>4.6</ele>
        <time>2020-07-19T19:52:49Z</time>
      </trkpt>
      <trkpt lat="51.227216839146" lon="4.456459758264">
        <ele>0</ele>
        <time>2020-07-19T19:54:48Z</time>
      </trkpt>
      <trkpt lat="51.227292108608" lon="4.456443832654">
        <ele>0</ele>
        <time>2020-07-19T19:54:57Z</time>
      </trkpt>
      <trkpt lat="51.227371904296" lon="4.456437127134">
        <ele>0</ele>
        <time>2020-07-19T19:55:05Z</time>
      </trkpt>
      <trkpt lat="51.227449185414" lon="4.456343417492">
        <ele>0</ele>
        <time>2020-07-19T19:55:15Z</time>
      </trkpt>
      <trkpt lat="51.227695194179" lon="4.455984085439">
        <ele>0</ele>
        <time>2020-07-19T19:55:47Z</time>
      </trkpt>
      <trkpt lat="51.227972048336" lon="4.455920634456">
        <ele>2.8</ele>
        <time>2020-07-19T19:56:11Z</time>
      </trkpt>
      <trkpt lat="51.227996104389" lon="4.455934296953">
        <ele>2.4</ele>
        <time>2020-07-19T19:56:14Z</time>
      </trkpt>
      <trkpt lat="51.228016640044" lon="4.455928094347">
        <ele>2.4</ele>
        <time>2020-07-19T19:56:17Z</time>
      </trkpt>
      <trkpt lat="51.228206992993" lon="4.45644584431">
        <ele>3</ele>
        <time>2020-07-19T19:57:50Z</time>
      </trkpt>
      <trkpt lat="51.228250914149" lon="4.456675256913">
        <ele>5.6</ele>
        <time>2020-07-19T19:58:10Z</time>
      </trkpt>
      <trkpt lat="51.228322495575" lon="4.456787742011">
        <ele>4.8</ele>
        <time>2020-07-19T19:58:20Z</time>
      </trkpt>
      <trkpt lat="51.228471358119" lon="4.456906094439">
        <ele>0.4</ele>
        <time>2020-07-19T19:58:35Z</time>
      </trkpt>
      <trkpt lat="51.228929009859" lon="4.456836776126">
        <ele>0</ele>
        <time>2020-07-19T19:59:13Z</time>
      </trkpt>
      <trkpt lat="51.229379117889" lon="4.456767122537">
        <ele>0.6</ele>
        <time>2020-07-19T19:59:53Z</time>
      </trkpt>
      <trkpt lat="51.229659576263" lon="4.456714819481">
        <ele>8</ele>
        <time>2020-07-19T20:00:34Z</time>
      </trkpt>
      <trkpt lat="51.229944225587" lon="4.456561682168">
        <ele>4.6</ele>
        <time>2020-07-19T20:00:58Z</time>
      </trkpt>
      <trkpt lat="51.230405230087" lon="4.45639555291">
        <ele>0</ele>
        <time>2020-07-19T20:01:49Z</time>
      </trkpt>
      <trkpt lat="51.230661380951" lon="4.456293377549">
        <ele>0</ele>
        <time>2020-07-19T20:02:11Z</time>
      </trkpt>
      <trkpt lat="51.230753833308" lon="4.456327324244">
        <ele>3.2</ele>
        <time>2020-07-19T20:02:22Z</time>
      </trkpt>
      <trkpt lat="51.231010403267" lon="4.456118614934">
        <ele>0</ele>
        <time>2020-07-19T20:03:14Z</time>
      </trkpt>
      <trkpt lat="51.23104787036" lon="4.456238392285">
        <ele>0</ele>
        <time>2020-07-19T20:03:21Z</time>
      </trkpt>
      <trkpt lat="51.231076033544" lon="4.456249791669">
        <ele>0</ele>
        <time>2020-07-19T20:03:23Z</time>
      </trkpt>
      <trkpt lat="51.231138311061" lon="4.456244427253">
        <ele>0</ele>
        <time>2020-07-19T20:03:33Z</time>
      </trkpt>
      <trkpt lat="51.231246940485" lon="4.456309554616">
        <ele>6</ele>
        <time>2020-07-19T20:04:26Z</time>
      </trkpt>
      <trkpt lat="51.231255406204" lon="4.456561179254">
        <ele>3</ele>
        <time>2020-07-19T20:04:52Z</time>
      </trkpt>
      <trkpt lat="51.231191368488" lon="4.457264169207">
        <ele>0</ele>
        <time>2020-07-19T20:05:34Z</time>
      </trkpt>
      <trkpt lat="51.231087935842" lon="4.45759165004">
        <ele>2.6</ele>
        <time>2020-07-19T20:06:12Z</time>
      </trkpt>
      <trkpt lat="51.230643443685" lon="4.457718384368">
        <ele>9.6</ele>
        <time>2020-07-19T20:06:51Z</time>
      </trkpt>
      <trkpt lat="51.230247147453" lon="4.457819302444">
        <ele>8.6</ele>
        <time>2020-07-19T20:07:34Z</time>
      </trkpt>
      <trkpt lat="51.229968365459" lon="4.457940001804">
        <ele>6.2</ele>
        <time>2020-07-19T20:08:02Z</time>
      </trkpt>
      <trkpt lat="51.229955792609" lon="4.457982162761">
        <ele>4.6</ele>
        <time>2020-07-19T20:08:05Z</time>
      </trkpt>
      <trkpt lat="51.229856047999" lon="4.458146950915">
        <ele>0</ele>
        <time>2020-07-19T20:08:21Z</time>
      </trkpt>
      <trkpt lat="51.229834003602" lon="4.457942348736">
        <ele>0</ele>
        <time>2020-07-19T20:08:33Z</time>
      </trkpt>
      <trkpt lat="51.229727804929" lon="4.457951485007">
        <ele>0</ele>
        <time>2020-07-19T20:08:45Z</time>
      </trkpt>
      <trkpt lat="51.22947207316" lon="4.458018959302">
        <ele>2.8</ele>
        <time>2020-07-19T20:09:17Z</time>
      </trkpt>
      <trkpt lat="51.229308290834" lon="4.458104370863">
        <ele>3</ele>
        <time>2020-07-19T20:09:48Z</time>
      </trkpt>
      <trkpt lat="51.229629904337" lon="4.457888285481">
        <ele>2.2</ele>
        <time>2020-07-19T20:10:38Z</time>
      </trkpt>
      <trkpt lat="51.22971431007" lon="4.45791770595">
        <ele>0</ele>
        <time>2020-07-19T20:11:21Z</time>
      </trkpt>
    </trkseg>
  </trk>
</gpx>